Погода Вискачина 2 недели

Минская область, Белоруссия

20 июля-02 августа
  • 20июля
    Сегодня
    +13°
    +24°
    Практически безоблачно
    ВремяПогодаТемператураВлажностьДавлениеВетер, м/сВероятность осадков
    00:00Ясно и безоблачно+17°C70 %747 мм2.8 м/с2 %
    03:00Ясно и безоблачно+14°C80 %747 мм2.5 м/с2 %
    06:00Ясно и безоблачно+13°C88 %746 мм2.4 м/с2 %
    09:00Ясно и безоблачно+17°C79 %746 мм2.1 м/с2 %
    12:00Облачно с прояснениями+21°C60 %746 мм2.6 м/с2 %
    15:00Практически безоблачно+22°C53 %745 мм3.2 м/с4 %
    18:00Небольшая облачность+23°C48 %744 мм3.4 м/с4 %
    21:00Ясно и безоблачно+20°C74 %744 мм2.1 м/с1 %
  • 21июля
    Воскресенье
    +14°
    +26°
    Практически безоблачно
    ВремяПогодаТемператураВлажностьДавлениеВетер, м/сВероятность осадков
    00:00Практически безоблачно+16°C79 %744 мм1.3 м/с2 %
    03:00Ясно и безоблачно+15°C81 %744 мм1.0 м/с2 %
    06:00Ясно и безоблачно+14°C88 %743 мм1.0 м/с2 %
    09:00Практически безоблачно+20°C69 %744 мм1.3 м/с2 %
    12:00Ясно и безоблачно+23°C51 %743 мм2.6 м/с11 %
    15:00Практически безоблачно+25°C48 %743 мм2.0 м/с20 %
    18:00Практически безоблачно+25°C45 %742 мм1.5 м/с21 %
    21:00Практически безоблачно+22°C67 %743 мм2.4 м/с15 %
  • 22июля
    Понедельник
    +15°
    +25°
    Практически безоблачно
    ВремяПогодаТемператураВлажностьДавлениеВетер, м/сВероятность осадков
    00:00Ясно и безоблачно+18°C78 %743 мм2.1 м/с2 %
    03:00Ясно и безоблачно+15°C91 %743 мм1.5 м/с2 %
    06:00Практически безоблачно+15°C92 %743 мм1.6 м/с4 %
    09:00Практически безоблачно+20°C76 %743 мм2.6 м/с10 %
    12:00Практически безоблачно+24°C59 %744 мм0.2 м/с21 %
    15:00Практически безоблачно+25°C54 %744 мм0.5 м/с32 %
    18:00Практически безоблачно+24°C60 %744 мм1.7 м/с22 %
    21:00Ясно и безоблачно+23°C70 %744 мм0.4 м/с17 %
  • 23июля
    Вторник
    +16°
    +27°
    Ясно и безоблачно
    ВремяПогодаТемператураВлажностьДавлениеВетер, м/сВероятность осадков
    00:00Ясно и безоблачно+19°C84 %745 мм1.8 м/с2 %
    03:00Ясно и безоблачно+16°C93 %745 мм1.8 м/с2 %
    06:00Ясно и безоблачно+16°C93 %745 мм0.5 м/с2 %
    09:00Практически безоблачно+21°C76 %746 мм1.1 м/с4 %
    12:00Практически безоблачно+25°C57 %746 мм2.1 м/с22 %
    15:00Ясно и безоблачно+26°C53 %745 мм2.4 м/с33 %
    18:00Небольшая облачность+26°C50 %745 мм2.7 м/с25 %
    21:00Облачно с прояснениями+23°C72 %745 мм1.7 м/с20 %
  • 24июля
    Среда
    +16°
    +26°
    Пасмурно, сплошная облачность
    ВремяПогодаТемператураВлажностьДавлениеВетер, м/сВероятность осадков
    00:00Облачно с прояснениями+19°C81 %745 мм1.9 м/с3 %
    03:00Облачно с прояснениями+17°C91 %744 мм1.7 м/с4 %
    06:00Облачно с прояснениями+17°C94 %744 мм1.7 м/с2 %
    09:00Небольшая облачность+21°C79 %744 мм1.9 м/с6 %
    12:00Практически безоблачно+25°C62 %744 мм2.4 м/с33 %
    15:00Пасмурно, сплошная облачность+25°C55 %744 мм2.7 м/с44 %
    18:00Небольшая облачность и лёгкий дождик+24°C62 %743 мм3.5 м/с57 %
    21:00Небольшая облачность+22°C67 %743 мм2.4 м/с47 %
Мы используем cookies
Соглашаюсь